createdAt,value
2023-01-29T00:02:07.864Z,-0.88
2023-01-29T00:04:36.549Z,-0.85
2023-01-29T00:07:05.257Z,-0.91
2023-01-29T00:09:35.233Z,-0.90
2023-01-29T00:12:05.662Z,-0.91
2023-01-29T00:14:35.854Z,-0.93
2023-01-29T00:17:06.062Z,-0.87
2023-01-29T00:19:36.405Z,-0.73
2023-01-29T00:22:06.955Z,-0.84
2023-01-29T00:24:35.839Z,-0.87
2023-01-29T00:27:04.710Z,-0.85
2023-01-29T00:29:33.516Z,-0.80
2023-01-29T00:32:02.452Z,-0.82
2023-01-29T00:34:34.546Z,-0.73
2023-01-29T00:37:05.039Z,-0.73
2023-01-29T00:39:47.096Z,-0.75
2023-01-29T00:42:25.199Z,-0.60
2023-01-29T00:44:59.998Z,-0.76
2023-01-29T00:47:33.706Z,-0.68
2023-01-29T00:50:05.052Z,-0.73
2023-01-29T00:52:35.691Z,-0.89
2023-01-29T00:55:06.385Z,-0.81
2023-01-29T00:57:36.187Z,-0.87
2023-01-29T01:00:08.980Z,-0.93
2023-01-29T01:02:55.497Z,-0.92
2023-01-29T01:05:24.793Z,-0.89
2023-01-29T01:07:58.547Z,-0.94
2023-01-29T01:10:32.996Z,-0.83
2023-01-29T01:13:06.588Z,-0.87
2023-01-29T01:15:40.464Z,-0.91
2023-01-29T01:18:10.888Z,-0.94
2023-01-29T01:20:40.076Z,-0.82
2023-01-29T01:23:08.798Z,-0.90
2023-01-29T01:25:39.024Z,-1.00
2023-01-29T01:28:08.039Z,-1.01
2023-01-29T01:30:36.783Z,-0.93
2023-01-29T01:33:05.892Z,-0.98
2023-01-29T01:35:34.795Z,-1.02
2023-01-29T01:38:03.527Z,-1.00
2023-01-29T01:40:32.242Z,-1.15
2023-01-29T01:43:02.688Z,-1.14
2023-01-29T01:45:36.385Z,-1.09
2023-01-29T01:48:13.352Z,-1.12
2023-01-29T01:50:56.872Z,-1.13
2023-01-29T01:53:32.249Z,-1.06
2023-01-29T01:56:03.867Z,-1.07
2023-01-29T01:58:41.441Z,-1.07
2023-01-29T02:01:12.008Z,-1.08
2023-01-29T02:04:02.453Z,-1.12
2023-01-29T02:06:50.101Z,-1.06
2023-01-29T02:09:36.846Z,-1.07
2023-01-29T02:12:12.005Z,-1.08
2023-01-29T02:14:42.425Z,-1.13
2023-01-29T02:17:14.414Z,-1.12
2023-01-29T02:20:04.783Z,-1.11
2023-01-29T02:22:55.448Z,-0.96
2023-01-29T02:25:42.502Z,-0.87
2023-01-29T02:28:22.474Z,-1.01
2023-01-29T02:31:15.339Z,-1.02
2023-01-29T02:33:59.069Z,-1.09
2023-01-29T02:36:42.852Z,-1.10
2023-01-29T02:39:14.667Z,-1.11
2023-01-29T02:41:49.068Z,-1.09
2023-01-29T02:44:24.769Z,-1.06
2023-01-29T02:47:08.816Z,-0.98
2023-01-29T02:49:56.479Z,-1.04
2023-01-29T02:52:44.732Z,-1.05
2023-01-29T02:55:19.352Z,-1.00
2023-01-29T02:57:50.442Z,-1.01
2023-01-29T03:00:22.351Z,-1.04
2023-01-29T03:02:53.991Z,-1.07
2023-01-29T03:05:44.978Z,-0.99
2023-01-29T03:08:16.672Z,-1.04
2023-01-29T03:10:48.691Z,-1.09
2023-01-29T03:13:22.153Z,-1.06
2023-01-29T03:15:57.446Z,-1.03
2023-01-29T03:18:30.747Z,-1.02
2023-01-29T03:21:06.602Z,-1.06
2023-01-29T03:23:55.993Z,-1.05
2023-01-29T03:26:43.781Z,-0.98
2023-01-29T03:29:32.168Z,-0.96
2023-01-29T03:32:08.224Z,-0.99
2023-01-29T03:34:45.860Z,-0.93
2023-01-29T03:37:33.467Z,-1.03
2023-01-29T03:40:04.822Z,-1.02
2023-01-29T03:42:48.783Z,-1.06
2023-01-29T03:45:35.909Z,-0.98
2023-01-29T03:48:20.805Z,-1.00
2023-01-29T03:50:55.007Z,-0.95
2023-01-29T03:53:32.438Z,-0.87
2023-01-29T03:56:27.892Z,-0.76
2023-01-29T03:59:16.341Z,-1.04
2023-01-29T04:02:00.470Z,-0.99
2023-01-29T04:07:31.040Z,-1.09
2023-01-29T04:10:09.506Z,-0.99
2023-01-29T04:13:28.461Z,-0.79
2023-01-29T04:16:16.736Z,-0.82
2023-01-29T04:19:05.660Z,-0.99
2023-01-29T04:22:20.732Z,-0.98
2023-01-29T04:27:44.145Z,-1.02
2023-01-29T04:30:24.890Z,-1.06
2023-01-29T04:33:19.047Z,-1.15
2023-01-29T04:36:15.282Z,-1.17
2023-01-29T04:39:04.870Z,-1.12
2023-01-29T04:41:51.492Z,-1.16
2023-01-29T04:44:27.114Z,-1.16
2023-01-29T04:50:03.916Z,-1.11
2023-01-29T04:52:55.256Z,-1.15
2023-01-29T04:58:03.231Z,-1.12
2023-01-29T04:59:18.036Z,-1.16
2023-01-29T05:02:04.019Z,-1.16
2023-01-29T05:07:47.333Z,-1.16
2023-01-29T05:10:30.260Z,-1.14
2023-01-29T05:13:13.928Z,-1.11
2023-01-29T05:16:04.253Z,-1.16
2023-01-29T05:18:58.497Z,-1.19
2023-01-29T05:21:48.175Z,-1.12
2023-01-29T05:24:25.079Z,-1.15
2023-01-29T05:28:56.034Z,-1.17
2023-01-29T05:30:12.921Z,-1.10
2023-01-29T05:38:36.793Z,-0.99
2023-01-29T05:47:44.061Z,-0.91
2023-01-29T05:50:11.241Z,-0.99
2023-01-29T05:53:02.667Z,-1.08
2023-01-29T05:55:58.841Z,-0.98
2023-01-29T06:07:52.311Z,-1.02
2023-01-29T06:10:42.567Z,-0.86
2023-01-29T06:19:28.095Z,-0.83
2023-01-29T06:22:09.104Z,-0.82
2023-01-29T06:24:56.592Z,-0.74
2023-01-29T06:28:01.846Z,-0.66
2023-01-29T06:39:44.966Z,-0.79
2023-01-29T06:42:14.148Z,-0.77
2023-01-29T06:53:35.698Z,-0.51
2023-01-29T06:56:29.238Z,-0.49
2023-01-29T07:02:03.375Z,-0.49
2023-01-29T07:04:42.991Z,-0.67
2023-01-29T07:07:28.674Z,-0.46
2023-01-29T07:10:14.439Z,-0.50
2023-01-29T07:12:55.887Z,-0.60
2023-01-29T07:15:56.971Z,-0.35
2023-01-29T07:18:14.167Z,-0.56
2023-01-29T07:22:14.480Z,-0.39
2023-01-29T07:30:11.987Z,-0.16
2023-01-29T07:33:13.478Z,-0.38
2023-01-29T07:39:00.345Z,-0.28
2023-01-29T07:41:45.502Z,-0.09
2023-01-29T07:54:13.917Z,-0.46
2023-01-29T09:08:42.922Z,0.21
2023-01-29T09:17:39.072Z,-0.01
2023-01-29T09:28:16.064Z,0.03
2023-01-29T09:33:38.569Z,0.08
2023-01-29T10:06:25.606Z,0.34
2023-01-29T10:09:32.731Z,0.01
2023-01-29T10:13:02.043Z,0.03
2023-01-29T10:19:16.283Z,0.02
2023-01-29T10:21:53.663Z,-0.12
2023-01-29T10:24:31.135Z,0.13
2023-01-29T10:27:17.300Z,0.16
2023-01-29T10:29:48.446Z,0.30
2023-01-29T10:32:28.853Z,0.00
2023-01-29T10:35:05.274Z,-0.07
2023-01-29T10:37:43.502Z,-0.32
2023-01-29T10:44:05.031Z,0.41
2023-01-29T10:46:51.842Z,0.30
2023-01-29T10:53:43.236Z,0.22
2023-01-29T11:03:00.718Z,0.29
2023-01-29T11:13:08.812Z,0.56
2023-01-29T11:19:10.104Z,0.40
2023-01-29T11:22:12.424Z,0.57
2023-01-29T11:24:47.981Z,0.64
2023-01-29T11:27:41.975Z,0.09
2023-01-29T11:30:34.862Z,0.15
2023-01-29T11:33:21.211Z,0.20
2023-01-29T11:35:50.129Z,0.29
2023-01-29T11:39:08.819Z,0.51
2023-01-29T12:50:00.224Z,1.06
2023-01-29T13:27:04.723Z,0.92
2023-01-29T13:33:15.837Z,0.89
2023-01-29T13:36:00.989Z,0.57
2023-01-29T13:38:48.228Z,0.57
2023-01-29T13:57:35.556Z,-0.20
2023-01-29T14:04:09.316Z,0.12
2023-01-29T14:07:02.073Z,0.02
2023-01-29T14:09:45.500Z,-0.09
2023-01-29T14:16:34.088Z,0.38
2023-01-29T14:19:32.367Z,0.59
2023-01-29T14:24:12.510Z,0.61
2023-01-29T14:25:44.988Z,0.49
2023-01-29T14:34:30.779Z,0.46
2023-01-29T14:38:07.343Z,0.23
2023-01-29T14:40:54.988Z,0.26
2023-01-29T14:47:03.926Z,0.28
2023-01-29T14:56:23.108Z,0.21
2023-01-29T15:02:01.370Z,0.05
2023-01-29T15:05:04.281Z,0.03
2023-01-29T15:08:04.344Z,-0.12
2023-01-29T15:11:10.546Z,-0.13
2023-01-29T15:14:04.728Z,-0.79
2023-01-29T15:17:30.564Z,-0.17
2023-01-29T15:20:40.454Z,-0.19
2023-01-29T15:26:27.261Z,-0.18
2023-01-29T15:49:09.723Z,-0.31
2023-01-29T15:51:55.802Z,-0.41
2023-01-29T15:54:34.441Z,-0.39
2023-01-29T15:57:16.873Z,-0.33
2023-01-29T16:00:24.242Z,-0.22
2023-01-29T16:12:40.588Z,-0.38
2023-01-29T16:15:12.409Z,-0.37
2023-01-29T16:17:43.920Z,-0.43
2023-01-29T16:26:28.647Z,-0.39
2023-01-29T16:26:45.342Z,-0.39
2023-01-29T16:29:35.169Z,-0.34
2023-01-29T16:32:15.851Z,-0.39
2023-01-29T16:35:37.743Z,-0.49
2023-01-29T16:38:39.303Z,-0.44
2023-01-29T16:41:20.277Z,-0.40
2023-01-29T16:44:12.508Z,-0.39
2023-01-29T16:46:54.752Z,-0.44
2023-01-29T16:49:34.574Z,-0.52
2023-01-29T16:52:33.104Z,-0.46
2023-01-29T16:55:04.855Z,-0.50
2023-01-29T16:57:39.423Z,-0.48
2023-01-29T17:00:29.311Z,-0.49
2023-01-29T17:03:01.962Z,-0.48
2023-01-29T17:05:36.895Z,-0.51
2023-01-29T17:08:07.110Z,-0.44
2023-01-29T17:10:37.736Z,-0.42
2023-01-29T17:13:17.073Z,-0.48
2023-01-29T17:15:49.408Z,-0.50
2023-01-29T17:18:24.100Z,-0.58
2023-01-29T17:20:53.936Z,-0.59
2023-01-29T17:23:27.085Z,-0.50
2023-01-29T17:26:00.367Z,-0.45
2023-01-29T17:28:33.988Z,-0.45
2023-01-29T17:31:08.245Z,-0.43
2023-01-29T17:33:39.554Z,-0.29
2023-01-29T17:36:10.332Z,-0.41
2023-01-29T17:38:39.358Z,-0.44
2023-01-29T17:41:30.884Z,-0.49
2023-01-29T17:43:59.860Z,-0.52
2023-01-29T17:46:31.793Z,-0.45
2023-01-29T17:49:06.972Z,-0.55
2023-01-29T17:51:35.839Z,-0.52
2023-01-29T17:54:06.023Z,-0.50
2023-01-29T17:56:37.779Z,-0.48
2023-01-29T17:59:19.030Z,-0.55
2023-01-29T18:01:51.464Z,-0.60
2023-01-29T18:04:23.280Z,-0.46
2023-01-29T18:06:53.408Z,-0.47
2023-01-29T18:09:23.068Z,-0.69
2023-01-29T18:11:53.477Z,-0.65
2023-01-29T18:14:25.209Z,-0.57
2023-01-29T18:17:07.556Z,-0.55
2023-01-29T18:19:37.956Z,-0.59
2023-01-29T18:22:20.403Z,-0.34
2023-01-29T18:24:52.404Z,-0.53
2023-01-29T18:27:22.763Z,-0.58
2023-01-29T18:29:52.995Z,-0.61
2023-01-29T18:32:21.940Z,-0.70
2023-01-29T18:34:52.456Z,-0.66
2023-01-29T18:37:21.167Z,-0.74
2023-01-29T18:40:04.586Z,-0.72
2023-01-29T18:42:35.740Z,-0.78
2023-01-29T18:45:05.663Z,-0.68
2023-01-29T18:47:34.341Z,-0.72
2023-01-29T18:50:29.067Z,-0.75
2023-01-29T18:52:54.055Z,-0.59
2023-01-29T20:58:05.237Z,-0.63
2023-01-29T21:00:22.817Z,-0.78
2023-01-29T21:02:51.528Z,-0.77
2023-01-29T21:05:20.194Z,-0.78
2023-01-29T21:07:50.624Z,-0.75
2023-01-29T21:10:21.165Z,-0.70
2023-01-29T21:12:52.844Z,-0.65
2023-01-29T21:15:21.920Z,-0.78
2023-01-29T21:17:51.770Z,-0.64
2023-01-29T21:20:21.173Z,-0.67
2023-01-29T21:22:50.015Z,-0.67
2023-01-29T21:25:20.430Z,-0.58
2023-01-29T21:27:52.627Z,-0.64
2023-01-29T21:30:21.464Z,-0.59
2023-01-29T21:32:50.179Z,-0.63
2023-01-29T21:35:18.813Z,-0.71
2023-01-29T21:37:47.451Z,-0.72
2023-01-29T21:40:19.545Z,-0.77
2023-01-29T21:43:07.617Z,-0.76
2023-01-29T21:45:38.108Z,-0.74
2023-01-29T21:48:07.486Z,-0.68
2023-01-29T21:50:39.163Z,-0.77
2023-01-29T21:53:17.502Z,-0.68
2023-01-29T21:55:57.829Z,-0.63
2023-01-29T21:58:19.647Z,-0.48
2023-01-29T22:00:49.093Z,-0.53
2023-01-29T22:03:18.046Z,-0.42
2023-01-29T22:05:46.732Z,-0.60
2023-01-29T22:08:15.412Z,-0.59
2023-01-29T22:10:46.068Z,-0.68
2023-01-29T22:13:15.523Z,-0.75
2023-01-29T22:15:44.124Z,-0.78
2023-01-29T22:18:12.703Z,-0.70
2023-01-29T22:20:42.914Z,-0.68
2023-01-29T22:23:12.809Z,-0.70
2023-01-29T22:25:42.696Z,-0.68
2023-01-29T22:28:11.481Z,-0.78
2023-01-29T22:30:43.093Z,-0.78
2023-01-29T22:33:14.447Z,-0.90
2023-01-29T22:35:43.190Z,-0.92
2023-01-29T22:38:11.710Z,-0.97
2023-01-29T22:40:40.497Z,-0.94
2023-01-29T22:43:09.158Z,-1.04
2023-01-29T22:45:41.725Z,-1.08
2023-01-29T22:48:12.602Z,-1.05
2023-01-29T22:50:50.314Z,-1.03
2023-01-29T22:53:19.214Z,-0.97
2023-01-29T22:55:55.682Z,-1.02
2023-01-29T22:58:24.391Z,-1.00
2023-01-29T23:00:53.029Z,-1.03
2023-01-29T23:03:21.664Z,-1.14
2023-01-29T23:05:50.289Z,-1.00
2023-01-29T23:08:20.691Z,-0.96
2023-01-29T23:10:49.348Z,-0.85
2023-01-29T23:13:18.070Z,-0.95
2023-01-29T23:15:46.679Z,-1.01
2023-01-29T23:18:15.465Z,-1.03
2023-01-29T23:20:44.249Z,-0.99
2023-01-29T23:23:14.378Z,-1.03
2023-01-29T23:26:01.180Z,-1.11
2023-01-29T23:28:31.141Z,-1.02
2023-01-29T23:30:59.878Z,-1.05
2023-01-29T23:33:33.317Z,-1.11
2023-01-29T23:36:01.963Z,-1.06
2023-01-29T23:38:30.693Z,-1.04
2023-01-29T23:40:59.878Z,-1.03
2023-01-29T23:43:32.229Z,-1.09
2023-01-29T23:46:02.134Z,-0.95
2023-01-29T23:48:30.637Z,-1.16
2023-01-29T23:50:59.325Z,-1.14
2023-01-29T23:53:28.051Z,-1.15
2023-01-29T23:56:04.516Z,-1.16
2023-01-29T23:58:34.267Z,-1.04
